Terminal Aerodrome Forecast
Issued by NWS Lake Charles, LA

Home | Current Version | Previous Version | Text Only | Print | Product List | Glossary On
Versions: 1 2 3 4 5 6 7 8 9 10 11 12 13 14 15 16 17
000
FTUS44 KLCH 270520
TAFAEX
TAF
KAEX 270520Z 2706/2806 18005KT P6SM VCSH SCT025 OVC070
      TEMPO 2706/2709 5SM SHRA SCT017 OVC025
     FM271500 17014G20KT P6SM VCTS BKN025CB PROB30 2719/2724 3SM
      TSRA SCT026 BKN040CB
     FM280000 16010KT P6SM OVC050=

USA.gov is the U.S. government's official web portal to all federal, state and local government web resources and services.